createdAt,value
2017-02-18T00:00:25.975Z,0
2017-02-18T00:01:26.356Z,0
2017-02-18T00:02:26.354Z,0
2017-02-18T00:03:26.331Z,0
2017-02-18T00:04:26.311Z,0
2017-02-18T00:05:25.922Z,0
2017-02-18T00:06:26.287Z,0
2017-02-18T00:07:26.284Z,0
2017-02-18T00:08:26.280Z,0
2017-02-18T00:09:26.276Z,0
2017-02-18T00:10:26.250Z,0
2017-02-18T00:11:26.245Z,0
2017-02-18T00:12:26.261Z,0
2017-02-18T00:13:26.291Z,0
2017-02-18T00:14:26.226Z,0
2017-02-18T00:15:26.227Z,0
2017-02-18T00:16:26.202Z,0
2017-02-18T00:17:26.187Z,0
2017-02-18T00:18:26.174Z,0
2017-02-18T00:19:26.230Z,0
2017-02-18T00:20:26.143Z,0
2017-02-18T00:21:26.143Z,0
2017-02-18T00:22:26.134Z,0
2017-02-18T00:23:26.116Z,0
2017-02-18T00:24:26.122Z,0
2017-02-18T00:25:26.101Z,0
2017-02-18T00:26:26.084Z,0
2017-02-18T00:27:26.088Z,0
2017-02-18T00:28:26.085Z,0
2017-02-18T00:29:26.068Z,0
2017-02-18T00:30:26.065Z,0
2017-02-18T00:31:26.038Z,0
2017-02-18T00:32:26.019Z,0
2017-02-18T00:33:26.020Z,0
2017-02-18T00:34:26.013Z,0
2017-02-18T00:35:25.983Z,0
2017-02-18T00:36:25.991Z,0
2017-02-18T00:37:26.009Z,0
2017-02-18T00:38:25.974Z,0
2017-02-18T00:39:25.957Z,0
2017-02-18T00:40:25.940Z,0
2017-02-18T00:41:25.963Z,0
2017-02-18T00:42:25.912Z,0
2017-02-18T00:43:25.915Z,0
2017-02-18T00:44:25.887Z,0
2017-02-18T00:45:25.913Z,0
2017-02-18T00:46:25.893Z,0
2017-02-18T00:47:25.861Z,0
2017-02-18T00:48:25.857Z,0
2017-02-18T00:49:25.842Z,0
2017-02-18T00:50:25.863Z,0
2017-02-18T00:51:25.829Z,0
2017-02-18T00:52:25.817Z,0
2017-02-18T00:53:25.810Z,0
2017-02-18T00:54:25.786Z,0
2017-02-18T00:55:25.809Z,0
2017-02-18T00:56:25.409Z,0
2017-02-18T00:57:25.775Z,0
2017-02-18T00:58:25.749Z,0
2017-02-18T00:59:25.761Z,0
2017-02-18T01:00:25.736Z,0
2017-02-18T01:01:25.709Z,0
2017-02-18T01:02:25.700Z,0
2017-02-18T01:03:25.709Z,0
2017-02-18T01:04:25.677Z,0
2017-02-18T01:05:25.680Z,0
2017-02-18T01:06:25.669Z,0
2017-02-18T01:07:25.656Z,0
2017-02-18T01:08:25.660Z,0
2017-02-18T01:09:25.640Z,0
2017-02-18T01:10:25.618Z,0
2017-02-18T01:11:25.617Z,0
2017-02-18T01:12:25.618Z,0
2017-02-18T01:13:25.611Z,0
2017-02-18T01:14:25.652Z,0
2017-02-18T01:15:25.561Z,0
2017-02-18T01:16:25.574Z,0
2017-02-18T01:17:25.569Z,0
2017-02-18T01:18:25.538Z,0
2017-02-18T01:19:25.527Z,0
2017-02-18T01:20:25.529Z,0
2017-02-18T01:21:25.583Z,0
2017-02-18T01:22:25.516Z,0
2017-02-18T01:23:25.477Z,0
2017-02-18T01:24:25.463Z,0
2017-02-18T01:25:25.470Z,0
2017-02-18T01:26:25.477Z,0
2017-02-18T01:27:25.436Z,0
2017-02-18T01:28:25.419Z,0
2017-02-18T01:29:25.405Z,0
2017-02-18T01:30:25.418Z,0
2017-02-18T01:31:25.394Z,0
2017-02-18T01:32:25.389Z,0
2017-02-18T01:33:25.372Z,0
2017-02-18T01:34:25.373Z,0
2017-02-18T01:35:25.378Z,0
2017-02-18T01:36:25.352Z,0
2017-02-18T01:37:25.322Z,0
2017-02-18T01:38:25.626Z,0
2017-02-18T01:39:25.314Z,0
2017-02-18T01:40:25.312Z,0
2017-02-18T01:41:25.295Z,0
2017-02-18T01:42:25.283Z,0
2017-02-18T01:43:25.320Z,0
2017-02-18T01:44:25.253Z,0
2017-02-18T01:45:25.244Z,0
2017-02-18T01:46:25.249Z,0
2017-02-18T01:47:25.233Z,0
2017-02-18T01:48:25.225Z,0
2017-02-18T01:49:25.205Z,0
2017-02-18T01:50:25.197Z,0
2017-02-18T01:51:25.256Z,0
2017-02-18T01:52:25.186Z,0
2017-02-18T01:53:25.184Z,0
2017-02-18T01:54:25.156Z,0
2017-02-18T01:55:25.130Z,0
2017-02-18T01:56:25.136Z,0
2017-02-18T01:57:25.130Z,0
2017-02-18T01:58:25.162Z,0
2017-02-18T01:59:25.103Z,0
2017-02-18T02:00:25.103Z,0
2017-02-18T02:01:25.086Z,0
2017-02-18T02:02:25.059Z,0
2017-02-18T02:03:25.049Z,0
2017-02-18T02:04:25.064Z,0
2017-02-18T02:05:25.041Z,0
2017-02-18T02:06:25.022Z,0
2017-02-18T02:07:25.012Z,0
2017-02-18T02:08:25.011Z,0
2017-02-18T02:09:25.001Z,0
2017-02-18T02:10:24.978Z,0
2017-02-18T02:11:24.967Z,0
2017-02-18T02:12:24.975Z,0
2017-02-18T02:13:24.958Z,0
2017-02-18T02:14:24.953Z,0
2017-02-18T02:15:24.932Z,0
2017-02-18T02:16:24.926Z,0
2017-02-18T02:17:24.915Z,0
2017-02-18T02:18:24.501Z,0
2017-02-18T02:19:24.905Z,0
2017-02-18T02:20:24.869Z,0
2017-02-18T02:21:24.882Z,0
2017-02-18T02:22:24.867Z,0
2017-02-18T02:23:24.836Z,0
2017-02-18T02:24:24.841Z,0
2017-02-18T02:25:24.842Z,0
2017-02-18T02:26:24.807Z,0
2017-02-18T02:27:24.789Z,0
2017-02-18T02:28:24.798Z,0
2017-02-18T02:29:24.769Z,0
2017-02-18T02:30:24.764Z,0
2017-02-18T02:31:24.763Z,0
2017-02-18T02:32:24.748Z,0
2017-02-18T02:33:24.765Z,0
2017-02-18T02:34:25.026Z,0
2017-02-18T02:35:24.732Z,0
2017-02-18T02:36:24.697Z,0
2017-02-18T02:37:24.902Z,0
2017-02-18T02:38:24.696Z,0
2017-02-18T02:39:24.676Z,0
2017-02-18T02:40:24.666Z,0
2017-02-18T02:41:24.652Z,0
2017-02-18T02:42:24.244Z,0
2017-02-18T02:43:24.644Z,0
2017-02-18T02:44:24.619Z,0
2017-02-18T02:45:24.607Z,0
2017-02-18T02:46:24.642Z,0
2017-02-18T02:47:24.588Z,0
2017-02-18T02:48:24.592Z,0
2017-02-18T02:49:24.558Z,0
2017-02-18T02:50:24.554Z,0
2017-02-18T02:51:24.541Z,0
2017-02-18T02:52:24.556Z,0
2017-02-18T02:53:24.522Z,0
2017-02-18T02:54:24.525Z,0
2017-02-18T02:55:24.496Z,0
2017-02-18T02:56:24.479Z,0
2017-02-18T02:57:24.478Z,0
2017-02-18T02:58:24.479Z,0
2017-02-18T02:59:24.459Z,0
2017-02-18T03:00:24.442Z,0
2017-02-18T03:01:24.437Z,0
2017-02-18T03:02:24.422Z,0
2017-02-18T03:03:24.405Z,0
2017-02-18T03:04:24.413Z,0
2017-02-18T03:05:24.388Z,0
2017-02-18T03:06:24.398Z,0
2017-02-18T03:07:24.383Z,0
2017-02-18T03:08:24.351Z,0
2017-02-18T03:09:24.355Z,0
2017-02-18T03:10:24.333Z,0
2017-02-18T03:11:24.328Z,0
2017-02-18T03:12:24.313Z,0
2017-02-18T03:13:24.300Z,0
2017-02-18T03:14:24.302Z,0
2017-02-18T03:15:24.274Z,0
2017-02-18T03:16:24.272Z,0
2017-02-18T03:17:24.264Z,0
2017-02-18T03:18:24.260Z,0
2017-02-18T03:19:24.497Z,0
2017-02-18T03:20:24.224Z,0
2017-02-18T03:21:24.218Z,0
2017-02-18T03:22:24.219Z,0
2017-02-18T03:23:23.794Z,0
2017-02-18T03:24:24.204Z,0
2017-02-18T03:25:24.227Z,0
2017-02-18T03:26:24.158Z,0
2017-02-18T03:27:24.161Z,0
2017-02-18T03:28:24.142Z,0
2017-02-18T03:29:24.160Z,0
2017-02-18T03:30:24.131Z,0
2017-02-18T03:31:24.116Z,0
2017-02-18T03:32:24.097Z,0
2017-02-18T03:33:24.099Z,0
2017-02-18T03:34:24.077Z,0
2017-02-18T03:35:24.083Z,0
2017-02-18T03:36:24.070Z,0
2017-02-18T03:37:24.040Z,0
2017-02-18T03:38:24.051Z,0
2017-02-18T03:39:24.031Z,0
2017-02-18T03:40:24.038Z,0
2017-02-18T03:41:23.991Z,0
2017-02-18T03:42:23.990Z,0
2017-02-18T03:43:23.973Z,0
2017-02-18T03:44:23.974Z,0
2017-02-18T03:45:23.974Z,0
2017-02-18T03:46:23.957Z,0
2017-02-18T03:47:23.929Z,0
2017-02-18T03:48:23.920Z,0
2017-02-18T03:49:23.516Z,0
2017-02-18T03:50:23.915Z,0
2017-02-18T03:51:23.905Z,0
2017-02-18T03:52:23.883Z,0
2017-02-18T03:53:23.878Z,0
2017-02-18T03:54:23.871Z,0
2017-02-18T03:55:23.843Z,0
2017-02-18T03:56:23.853Z,0
2017-02-18T03:57:23.891Z,0
2017-02-18T03:58:23.832Z,0
2017-02-18T03:59:23.800Z,0
2017-02-18T04:00:23.801Z,0
2017-02-18T04:01:23.802Z,0
2017-02-18T04:02:23.780Z,0
2017-02-18T04:03:23.761Z,0
2017-02-18T04:04:23.745Z,0
2017-02-18T04:05:23.729Z,0
2017-02-18T04:06:23.743Z,0
2017-02-18T04:07:23.335Z,0
2017-02-18T04:08:23.710Z,0
2017-02-18T04:09:23.764Z,0
2017-02-18T04:10:23.682Z,0
2017-02-18T04:11:23.714Z,0
2017-02-18T04:12:23.712Z,0
2017-02-18T04:13:23.677Z,0
2017-02-18T04:14:23.653Z,0
2017-02-18T04:15:23.653Z,0
2017-02-18T04:16:23.624Z,0
2017-02-18T04:17:23.617Z,0
2017-02-18T04:18:23.602Z,0
2017-02-18T04:19:23.586Z,0
2017-02-18T04:20:23.597Z,0
2017-02-18T04:21:23.569Z,0
2017-02-18T04:22:23.549Z,0
2017-02-18T04:23:23.540Z,0
2017-02-18T04:24:23.541Z,0
2017-02-18T04:25:23.140Z,0
2017-02-18T04:26:23.515Z,0
2017-02-18T04:27:23.501Z,0
2017-02-18T04:28:23.494Z,0
2017-02-18T04:29:23.498Z,0
2017-02-18T04:30:23.471Z,0
2017-02-18T04:31:23.449Z,0
2017-02-18T04:32:23.448Z,0
2017-02-18T04:33:23.057Z,0
2017-02-18T04:34:23.434Z,0
2017-02-18T04:35:23.421Z,0
2017-02-18T04:36:23.415Z,0
2017-02-18T04:37:23.022Z,0
2017-02-18T04:38:23.381Z,0
2017-02-18T04:39:23.381Z,0
2017-02-18T04:40:23.373Z,0
2017-02-18T04:41:23.355Z,0
2017-02-18T04:42:23.370Z,0
2017-02-18T04:43:23.332Z,0
2017-02-18T04:44:23.306Z,0
2017-02-18T04:45:23.311Z,0
2017-02-18T04:46:23.286Z,0
2017-02-18T04:47:23.306Z,0
2017-02-18T04:48:22.889Z,0
2017-02-18T04:49:23.263Z,0
2017-02-18T04:50:23.275Z,0
2017-02-18T04:51:23.246Z,0
2017-02-18T04:52:23.233Z,0
2017-02-18T04:53:23.232Z,0
2017-02-18T04:54:23.264Z,0
2017-02-18T04:55:23.205Z,0
2017-02-18T04:56:23.202Z,0
2017-02-18T04:57:23.158Z,0
2017-02-18T04:58:23.173Z,0
2017-02-18T04:59:23.174Z,0
2017-02-18T05:00:22.770Z,0
2017-02-18T05:01:23.142Z,0
2017-02-18T05:02:23.135Z,0
2017-02-18T05:03:23.101Z,0
2017-02-18T05:04:23.089Z,0
2017-02-18T05:05:23.105Z,0
2017-02-18T05:06:23.076Z,0
2017-02-18T05:07:23.100Z,0
2017-02-18T05:08:23.042Z,0
2017-02-18T05:09:23.031Z,0
2017-02-18T05:10:23.033Z,0
2017-02-18T05:11:23.029Z,0
2017-02-18T05:12:23.021Z,0
2017-02-18T05:13:22.999Z,0
2017-02-18T05:14:22.972Z,0
2017-02-18T05:15:22.977Z,0
2017-02-18T05:16:22.966Z,0
2017-02-18T05:17:22.951Z,0
2017-02-18T05:18:22.933Z,0
2017-02-18T05:19:22.935Z,0
2017-02-18T05:20:22.931Z,0
2017-02-18T05:21:22.910Z,0
2017-02-18T05:22:22.923Z,0
2017-02-18T05:23:22.897Z,0
2017-02-18T05:24:22.885Z,0
2017-02-18T05:25:22.500Z,0
2017-02-18T05:26:22.861Z,0
2017-02-18T05:27:22.855Z,0
2017-02-18T05:28:22.837Z,0
2017-02-18T05:29:22.826Z,0
2017-02-18T05:30:22.831Z,0
2017-02-18T05:31:22.802Z,0
2017-02-18T05:32:22.780Z,0
2017-02-18T05:33:22.842Z,0
2017-02-18T05:34:22.764Z,0
2017-02-18T05:35:22.782Z,0
2017-02-18T05:36:22.761Z,0
2017-02-18T05:37:22.342Z,0
2017-02-18T05:38:22.730Z,0
2017-02-18T05:39:22.715Z,0
2017-02-18T05:40:22.701Z,0
2017-02-18T05:41:22.746Z,0
2017-02-18T05:42:22.677Z,0
2017-02-18T05:43:22.739Z,0
2017-02-18T05:44:22.665Z,0
2017-02-18T05:45:22.638Z,0
2017-02-18T05:46:22.646Z,0
2017-02-18T05:47:22.672Z,0
2017-02-18T05:48:22.623Z,0
2017-02-18T05:49:22.612Z,4
2017-02-18T05:50:22.609Z,4
2017-02-18T05:51:22.566Z,0
2017-02-18T05:52:22.577Z,4
2017-02-18T05:53:22.549Z,4
2017-02-18T05:54:22.553Z,4
2017-02-18T05:55:22.541Z,4
2017-02-18T05:56:22.510Z,4
2017-02-18T05:57:22.517Z,8
2017-02-18T05:58:22.510Z,4
2017-02-18T05:59:22.497Z,8
2017-02-18T06:00:22.491Z,8
2017-02-18T06:01:22.464Z,8
2017-02-18T06:02:22.470Z,12
2017-02-18T06:03:22.439Z,16
2017-02-18T06:04:22.427Z,20
2017-02-18T06:05:22.045Z,20
2017-02-18T06:06:22.424Z,28
2017-02-18T06:07:22.404Z,24
2017-02-18T06:08:22.401Z,28
2017-02-18T06:09:22.376Z,32
2017-02-18T06:10:21.976Z,32
2017-02-18T06:11:22.358Z,36
2017-02-18T06:12:22.369Z,40
2017-02-18T06:13:22.331Z,40
2017-02-18T06:14:22.315Z,44
2017-02-18T06:15:22.305Z,52
2017-02-18T06:16:22.292Z,52
2017-02-18T06:17:21.906Z,60
2017-02-18T06:18:22.275Z,64
2017-02-18T06:19:22.270Z,76
2017-02-18T06:20:22.239Z,80
2017-02-18T06:21:22.261Z,88
2017-02-18T06:22:22.250Z,100
2017-02-18T06:23:22.232Z,116
2017-02-18T06:24:22.200Z,132
2017-02-18T06:25:21.804Z,136
2017-02-18T06:26:22.186Z,140
2017-02-18T06:27:22.225Z,144
2017-02-18T06:28:22.161Z,152
2017-02-18T06:29:22.169Z,152
2017-02-18T06:30:22.146Z,168
2017-02-18T06:31:22.147Z,168
2017-02-18T06:32:22.127Z,136
2017-02-18T06:33:22.117Z,156
2017-02-18T06:34:22.105Z,164
2017-02-18T06:35:22.089Z,160
2017-02-18T06:36:22.089Z,204
2017-02-18T06:37:22.067Z,228
2017-02-18T06:38:21.655Z,244
2017-02-18T06:39:21.655Z,264
2017-02-18T06:40:22.023Z,292
2017-02-18T06:41:22.028Z,308
2017-02-18T06:42:22.009Z,332
2017-02-18T06:43:22.010Z,360
2017-02-18T06:44:21.615Z,384
2017-02-18T06:45:21.580Z,396
2017-02-18T06:46:21.983Z,416
2017-02-18T06:47:21.965Z,416
2017-02-18T06:48:21.948Z,400
2017-02-18T06:49:21.944Z,404
2017-02-18T06:50:21.927Z,424
2017-02-18T06:51:21.933Z,460
2017-02-18T06:52:21.500Z,480
2017-02-18T06:53:21.910Z,496
2017-02-18T06:54:21.933Z,512
2017-02-18T06:55:21.854Z,560
2017-02-18T06:56:21.879Z,652
2017-02-18T06:57:21.846Z,704
2017-02-18T06:58:21.839Z,740
2017-02-18T06:59:21.827Z,796
2017-02-18T07:00:21.810Z,840
2017-02-18T07:01:21.807Z,900
2017-02-18T07:02:21.799Z,920
2017-02-18T07:03:21.399Z,932
2017-02-18T07:04:21.378Z,908
2017-02-18T07:05:21.746Z,960
2017-02-18T07:06:21.749Z,980
2017-02-18T07:07:21.731Z,976
2017-02-18T07:08:21.726Z,1016
2017-02-18T07:09:21.717Z,1036
2017-02-18T07:10:21.710Z,1028
2017-02-18T07:11:21.307Z,1044
2017-02-18T07:12:21.684Z,1008
2017-02-18T07:13:21.683Z,916
2017-02-18T07:14:21.662Z,1032
2017-02-18T07:15:21.670Z,1088
2017-02-18T07:16:21.649Z,1068
2017-02-18T07:17:21.246Z,1144
2017-02-18T07:18:21.611Z,1160
2017-02-18T07:19:21.603Z,1244
2017-02-18T07:20:21.592Z,1228
2017-02-18T07:21:21.588Z,1232
2017-02-18T07:22:21.571Z,1260
2017-02-18T07:23:21.573Z,1124
2017-02-18T07:24:21.184Z,1100
2017-02-18T07:25:21.526Z,1108
2017-02-18T07:26:21.522Z,1168
2017-02-18T07:27:20.753Z,1224
2017-02-18T07:28:21.501Z,1172
2017-02-18T07:29:21.509Z,916
2017-02-18T07:30:21.498Z,876
2017-02-18T07:31:21.475Z,836
2017-02-18T07:32:21.462Z,832
2017-02-18T07:33:21.060Z,940
2017-02-18T07:34:21.432Z,1112
2017-02-18T07:35:21.424Z,1224
2017-02-18T07:36:21.421Z,1152
2017-02-18T07:37:21.433Z,1160
2017-02-18T07:38:21.409Z,1236
2017-02-18T07:39:21.388Z,1320
2017-02-18T07:40:21.366Z,1268
2017-02-18T07:41:21.376Z,1404
2017-02-18T07:42:21.351Z,1568
2017-02-18T07:43:21.354Z,1636
2017-02-18T07:44:21.334Z,1556
2017-02-18T07:45:20.947Z,1604
2017-02-18T07:46:21.337Z,1596
2017-02-18T07:47:20.926Z,1464
2017-02-18T07:48:21.283Z,1404
2017-02-18T07:49:20.903Z,1368
2017-02-18T07:50:21.318Z,1444
2017-02-18T07:51:21.244Z,1548
2017-02-18T07:52:21.261Z,1328
2017-02-18T07:53:20.450Z,1288
2017-02-18T07:54:21.224Z,1300
2017-02-18T07:55:21.220Z,1332
2017-02-18T07:56:21.206Z,1384
2017-02-18T07:57:21.227Z,1672
2017-02-18T07:58:21.184Z,1508
2017-02-18T07:59:21.180Z,1728
2017-02-18T08:00:21.163Z,1796
2017-02-18T08:01:21.162Z,1740
2017-02-18T08:02:21.158Z,1936
2017-02-18T08:03:21.150Z,2056
2017-02-18T08:04:21.130Z,1880
2017-02-18T08:05:21.126Z,1896
2017-02-18T08:06:21.109Z,2108
2017-02-18T08:07:21.094Z,2168
2017-02-18T08:08:21.086Z,2340
2017-02-18T08:09:21.084Z,2240
2017-02-18T08:10:21.065Z,2392
2017-02-18T08:11:20.660Z,2368
2017-02-18T08:12:20.655Z,2388
2017-02-18T08:13:21.046Z,2356
2017-02-18T08:14:21.019Z,2320
2017-02-18T08:15:21.023Z,2352
2017-02-18T08:16:20.613Z,2204
2017-02-18T08:17:21.001Z,2312
2017-02-18T08:18:21.000Z,2296
2017-02-18T08:19:20.983Z,2272
2017-02-18T08:20:20.995Z,2004
2017-02-18T08:21:21.008Z,1952
2017-02-18T08:22:20.948Z,2272
2017-02-18T08:23:20.930Z,2672
2017-02-18T08:24:20.555Z,2608
2017-02-18T08:25:20.496Z,2660
2017-02-18T08:26:20.903Z,2772
2017-02-18T08:27:20.501Z,2608
2017-02-18T08:28:20.873Z,2336
2017-02-18T08:29:20.859Z,2676
2017-02-18T08:30:21.143Z,2912
2017-02-18T08:31:20.481Z,2716
2017-02-18T08:32:20.456Z,2488
2017-02-18T08:33:20.825Z,2540
2017-02-18T08:34:20.409Z,2516
2017-02-18T08:35:20.813Z,2356
2017-02-18T08:36:20.797Z,2504
2017-02-18T08:37:20.790Z,2664
2017-02-18T08:38:20.782Z,2852
2017-02-18T08:39:20.756Z,2968
2017-02-18T08:40:20.750Z,3000
2017-02-18T08:41:20.355Z,3084
2017-02-18T08:42:20.745Z,3124
2017-02-18T08:43:20.730Z,3128
2017-02-18T08:44:20.695Z,3132
2017-02-18T08:45:20.696Z,2980
2017-02-18T08:46:20.682Z,3072
2017-02-18T08:47:20.695Z,2940
2017-02-18T08:48:20.655Z,2808
2017-02-18T08:49:20.664Z,2696
2017-02-18T08:50:20.646Z,2616
2017-02-18T08:51:20.636Z,2556
2017-02-18T08:52:20.644Z,2844
2017-02-18T08:53:20.617Z,2980
2017-02-18T08:54:20.666Z,2728
2017-02-18T08:55:20.215Z,2528
2017-02-18T08:56:20.579Z,2656
2017-02-18T08:57:20.578Z,3076
2017-02-18T08:58:20.573Z,3224
2017-02-18T08:59:20.164Z,3336
2017-02-18T09:00:20.163Z,3416
2017-02-18T09:01:20.547Z,3464
2017-02-18T09:02:20.575Z,3536
2017-02-18T09:03:20.118Z,3464
2017-02-18T09:04:20.519Z,3740
2017-02-18T09:05:20.105Z,3852
2017-02-18T09:06:20.487Z,3992
2017-02-18T09:07:20.500Z,3868
2017-02-18T09:08:20.074Z,4008
2017-02-18T09:09:20.085Z,3888
2017-02-18T09:10:20.444Z,3880
2017-02-18T09:11:20.438Z,3828
2017-02-18T09:12:20.039Z,3688
2017-02-18T09:13:20.047Z,3576
2017-02-18T09:14:20.413Z,3476
2017-02-18T09:15:20.402Z,3604
2017-02-18T09:16:20.396Z,3664
2017-02-18T09:17:20.374Z,3836
2017-02-18T09:18:19.980Z,3980
2017-02-18T09:19:20.348Z,4204
2017-02-18T09:20:19.960Z,4448
2017-02-18T09:21:20.001Z,4528
2017-02-18T09:22:19.948Z,4564
2017-02-18T09:23:19.942Z,4448
2017-02-18T09:24:20.293Z,4248
2017-02-18T09:25:20.302Z,4052
2017-02-18T09:26:20.281Z,3932
2017-02-18T09:27:20.262Z,3912
2017-02-18T09:28:19.884Z,3872
2017-02-18T09:29:20.280Z,3904
2017-02-18T09:30:20.254Z,4020
2017-02-18T09:31:20.228Z,4284
2017-02-18T09:32:19.829Z,4292
2017-02-18T09:33:20.226Z,4084
2017-02-18T09:34:19.821Z,4148
2017-02-18T09:35:20.212Z,4108
2017-02-18T09:36:20.485Z,4156
2017-02-18T09:37:20.190Z,3960
2017-02-18T09:38:19.785Z,4388
2017-02-18T09:39:20.167Z,5152
2017-02-18T09:40:20.156Z,4924
2017-02-18T09:41:20.047Z,4772
2017-02-18T09:42:20.136Z,4780
2017-02-18T09:43:20.119Z,5168
2017-02-18T09:44:20.115Z,5368
2017-02-18T09:45:19.694Z,5292
2017-02-18T09:46:20.101Z,4964
2017-02-18T09:47:20.076Z,4596
2017-02-18T09:48:20.069Z,3996
2017-02-18T09:49:20.065Z,4096
2017-02-18T09:50:19.669Z,4308
2017-02-18T09:51:19.650Z,4340
2017-02-18T09:52:19.651Z,4108
2017-02-18T09:53:20.012Z,3668
2017-02-18T09:54:19.620Z,4148
2017-02-18T09:55:19.995Z,4624
2017-02-18T09:56:19.978Z,4708
2017-02-18T09:57:19.984Z,4736
2017-02-18T09:58:19.986Z,4816
2017-02-18T09:59:19.957Z,4952
2017-02-18T10:00:19.967Z,5432
2017-02-18T10:01:19.557Z,5768
2017-02-18T10:02:19.937Z,5872
2017-02-18T10:03:19.919Z,6044
2017-02-18T10:04:19.916Z,6024
2017-02-18T10:05:19.526Z,6012
2017-02-18T10:06:19.900Z,5820
2017-02-18T10:07:19.493Z,5936
2017-02-18T10:08:19.889Z,5944
2017-02-18T10:09:19.863Z,5704
2017-02-18T10:10:19.861Z,5860
2017-02-18T10:11:19.839Z,5672
2017-02-18T10:12:19.836Z,5412
2017-02-18T10:13:19.046Z,5616
2017-02-18T10:14:19.870Z,5824
2017-02-18T10:15:19.427Z,6072
2017-02-18T10:16:19.806Z,6264
2017-02-18T10:17:19.802Z,6456
2017-02-18T10:18:19.776Z,6524
2017-02-18T10:19:19.772Z,6908
2017-02-18T10:20:19.755Z,7180
2017-02-18T10:21:19.364Z,7676
2017-02-18T10:22:19.758Z,7664
2017-02-18T10:23:19.752Z,7556
2017-02-18T10:24:19.739Z,7024
2017-02-18T10:25:19.738Z,7184
2017-02-18T10:26:19.707Z,7220
2017-02-18T10:27:19.710Z,7004
2017-02-18T10:28:19.296Z,6356
2017-02-18T10:29:19.664Z,6532
2017-02-18T10:30:19.690Z,6776
2017-02-18T10:31:19.286Z,6596
2017-02-18T10:32:19.260Z,6408
2017-02-18T10:33:19.658Z,5716
2017-02-18T10:34:19.243Z,5568
2017-02-18T10:35:19.635Z,5700
2017-02-18T10:36:19.618Z,5672
2017-02-18T10:37:19.608Z,5360
2017-02-18T10:38:19.603Z,4768
2017-02-18T10:39:19.586Z,4108
2017-02-18T10:40:19.177Z,3348
2017-02-18T10:41:19.575Z,3140
2017-02-18T10:42:19.565Z,3440
2017-02-18T10:43:19.600Z,4148
2017-02-18T10:44:19.546Z,4328
2017-02-18T10:45:19.548Z,4716
2017-02-18T10:46:19.509Z,5380
2017-02-18T10:47:19.562Z,5648
2017-02-18T10:48:19.498Z,5692
2017-02-18T10:49:19.520Z,5744
2017-02-18T10:50:19.109Z,5484
2017-02-18T10:51:19.469Z,5740
2017-02-18T10:52:19.467Z,6240
2017-02-18T10:53:19.472Z,6412
2017-02-18T10:54:19.076Z,6388
2017-02-18T10:55:19.109Z,6568
2017-02-18T10:56:19.439Z,6676
2017-02-18T10:57:19.423Z,6548
2017-02-18T10:58:19.414Z,6392
2017-02-18T10:59:19.427Z,5156
2017-02-18T11:00:19.404Z,5092
2017-02-18T11:01:19.387Z,5336
2017-02-18T11:02:19.388Z,6736
2017-02-18T11:03:18.975Z,6620
2017-02-18T11:04:19.361Z,6104
2017-02-18T11:05:18.988Z,6380
2017-02-18T11:06:19.348Z,6624
2017-02-18T11:07:19.346Z,7008
2017-02-18T11:08:19.337Z,7248
2017-02-18T11:09:19.317Z,7592
2017-02-18T11:10:18.907Z,7952
2017-02-18T11:11:19.307Z,8048
2017-02-18T11:12:19.301Z,8040
2017-02-18T11:13:19.285Z,7668
2017-02-18T11:14:18.896Z,7448
2017-02-18T11:15:18.867Z,7168
2017-02-18T11:16:19.262Z,7176
2017-02-18T11:17:19.252Z,7372
2017-02-18T11:18:19.248Z,7336
2017-02-18T11:19:19.238Z,7212
2017-02-18T11:20:19.230Z,6928
2017-02-18T11:21:18.816Z,6596
2017-02-18T11:22:18.823Z,6564
2017-02-18T11:23:18.809Z,6544
2017-02-18T11:24:19.182Z,6532
2017-02-18T11:25:19.187Z,6520
2017-02-18T11:26:19.147Z,6364
2017-02-18T11:27:19.171Z,6156
2017-02-18T11:28:19.146Z,6244
2017-02-18T11:29:19.139Z,6080
2017-02-18T11:30:19.121Z,5800
2017-02-18T11:31:19.123Z,5484
2017-02-18T11:32:19.135Z,5240
2017-02-18T11:33:19.126Z,5292
2017-02-18T11:34:19.102Z,5428
2017-02-18T11:35:18.696Z,5516
2017-02-18T11:36:19.076Z,5528
2017-02-18T11:37:19.079Z,5512
2017-02-18T11:38:19.070Z,5452
2017-02-18T11:39:19.055Z,5384
2017-02-18T11:40:18.647Z,5232
2017-02-18T11:41:19.032Z,5216
2017-02-18T11:42:19.027Z,5140
2017-02-18T11:43:19.028Z,4944
2017-02-18T11:44:19.015Z,4700
2017-02-18T11:45:19.000Z,4472
2017-02-18T11:46:18.994Z,4504
2017-02-18T11:47:18.992Z,4688
2017-02-18T11:48:18.974Z,4660
2017-02-18T11:49:18.955Z,4604
2017-02-18T11:50:18.963Z,4800
2017-02-18T11:51:18.927Z,4896
2017-02-18T11:52:18.546Z,4728
2017-02-18T11:53:18.951Z,4592
2017-02-18T11:54:18.540Z,4536
2017-02-18T11:55:18.987Z,4904
2017-02-18T11:56:18.525Z,4220
2017-02-18T11:57:18.916Z,4024
2017-02-18T11:58:18.896Z,3704
2017-02-18T11:59:18.877Z,3112
2017-02-18T12:00:18.866Z,2744
2017-02-18T12:01:18.860Z,2684
2017-02-18T12:02:18.855Z,2936
2017-02-18T12:03:18.448Z,3412
2017-02-18T12:04:18.828Z,3828
2017-02-18T12:05:18.809Z,4288
2017-02-18T12:06:18.450Z,4416
2017-02-18T12:07:18.029Z,4888
2017-02-18T12:08:18.434Z,5320
2017-02-18T12:09:18.780Z,5584
2017-02-18T12:10:18.789Z,5424
2017-02-18T12:11:18.756Z,5216
2017-02-18T12:12:18.768Z,5232
2017-02-18T12:13:18.739Z,5324
2017-02-18T12:14:18.730Z,5244
2017-02-18T12:15:18.754Z,5064
2017-02-18T12:16:18.323Z,5136
2017-02-18T12:17:18.329Z,4800
2017-02-18T12:18:18.707Z,4724
2017-02-18T12:19:18.709Z,4952
2017-02-18T12:20:18.296Z,5068
2017-02-18T12:21:18.684Z,5112
2017-02-18T12:22:18.668Z,4976
2017-02-18T12:23:18.654Z,5208
2017-02-18T12:24:18.650Z,5240
2017-02-18T12:25:18.641Z,5068
2017-02-18T12:26:18.636Z,4988
2017-02-18T12:27:18.608Z,5096
2017-02-18T12:28:18.221Z,5304
2017-02-18T12:29:18.612Z,5400
2017-02-18T12:30:18.214Z,5192
2017-02-18T12:31:18.196Z,4880
2017-02-18T12:32:18.182Z,4860
2017-02-18T12:33:18.560Z,5004
2017-02-18T12:34:18.554Z,5056
2017-02-18T12:35:18.547Z,5132
2017-02-18T12:36:18.536Z,5416
2017-02-18T12:37:18.520Z,5468
2017-02-18T12:38:18.129Z,5340
2017-02-18T12:39:18.513Z,5420
2017-02-18T12:40:18.504Z,5556
2017-02-18T12:41:18.493Z,5732
2017-02-18T12:42:18.492Z,5780
2017-02-18T12:43:18.495Z,5824
2017-02-18T12:44:18.450Z,5928
2017-02-18T12:45:18.444Z,6040
2017-02-18T12:46:18.442Z,6192
2017-02-18T12:47:18.047Z,6356
2017-02-18T12:48:18.025Z,6332
2017-02-18T12:49:18.399Z,6072
2017-02-18T12:50:18.410Z,5968
2017-02-18T12:51:18.402Z,6108
2017-02-18T12:52:18.385Z,6128
2017-02-18T12:53:18.374Z,5444
2017-02-18T12:54:18.362Z,4504
2017-02-18T12:55:18.354Z,3936
2017-02-18T12:56:18.364Z,3708
2017-02-18T12:57:18.337Z,3688
2017-02-18T12:58:18.340Z,3664
2017-02-18T12:59:17.923Z,3704
2017-02-18T13:00:17.905Z,3668
2017-02-18T13:01:18.296Z,3548
2017-02-18T13:02:17.901Z,3452
2017-02-18T13:03:18.292Z,3460
2017-02-18T13:04:17.883Z,3504
2017-02-18T13:05:17.868Z,3392
2017-02-18T13:06:17.878Z,3312
2017-02-18T13:07:17.861Z,3448
2017-02-18T13:08:18.250Z,3472
2017-02-18T13:09:18.223Z,3536
2017-02-18T13:10:18.219Z,3540
2017-02-18T13:11:18.207Z,3396
2017-02-18T13:12:18.215Z,3360
2017-02-18T13:13:17.800Z,3388
2017-02-18T13:14:18.167Z,3412
2017-02-18T13:15:18.168Z,3332
2017-02-18T13:16:18.168Z,3320
2017-02-18T13:17:18.153Z,3444
2017-02-18T13:18:17.751Z,3540
2017-02-18T13:19:17.738Z,3844
2017-02-18T13:20:18.119Z,4052
2017-02-18T13:21:18.126Z,3848
2017-02-18T13:22:18.103Z,3612
2017-02-18T13:23:18.085Z,3568
2017-02-18T13:24:18.073Z,3464
2017-02-18T13:25:18.061Z,3268
2017-02-18T13:26:17.697Z,3248
2017-02-18T13:27:17.655Z,3404
2017-02-18T13:28:18.036Z,3356
2017-02-18T13:29:18.029Z,3264
2017-02-18T13:30:18.033Z,3180
2017-02-18T13:31:17.619Z,3164
2017-02-18T13:32:18.003Z,3100
2017-02-18T13:33:18.016Z,3084
2017-02-18T13:34:17.606Z,3112
2017-02-18T13:35:17.631Z,2944
2017-02-18T13:36:17.589Z,2680
2017-02-18T13:37:17.565Z,2596
2017-02-18T13:38:17.567Z,2528
2017-02-18T13:39:17.546Z,2500
2017-02-18T13:40:17.925Z,2588
2017-02-18T13:41:17.916Z,2616
2017-02-18T13:42:17.122Z,2684
2017-02-18T13:43:17.901Z,2800
2017-02-18T13:44:17.502Z,2780
2017-02-18T13:45:17.507Z,2744
2017-02-18T13:46:17.456Z,2708
2017-02-18T13:47:17.463Z,2644
2017-02-18T13:48:17.892Z,2536
2017-02-18T13:49:17.445Z,2428
2017-02-18T13:50:17.863Z,2340
2017-02-18T13:51:17.446Z,2352
2017-02-18T13:52:17.803Z,2532
2017-02-18T13:53:17.793Z,2604
2017-02-18T13:54:17.386Z,2652
2017-02-18T13:55:17.398Z,2688
2017-02-18T13:56:17.779Z,2736
2017-02-18T13:57:17.755Z,2804